sensor_id;sensor_type;location;lat;lon;timestamp;temperature;humidity
16404;DHT22;8311;50.158;8.642;2023-03-09T00:02:16;18.20;40.40
16404;DHT22;8311;50.158;8.642;2023-03-09T00:05:11;18.20;40.40
16404;DHT22;8311;50.158;8.642;2023-03-09T00:08:05;18.20;40.40
16404;DHT22;8311;50.158;8.642;2023-03-09T00:10:59;18.20;40.40
16404;DHT22;8311;50.158;8.642;2023-03-09T00:13:52;18.20;40.40
16404;DHT22;8311;50.158;8.642;2023-03-09T00:16:45;18.20;40.40
16404;DHT22;8311;50.158;8.642;2023-03-09T00:19:38;18.20;40.40
16404;DHT22;8311;50.158;8.642;2023-03-09T00:22:31;18.20;40.40
16404;DHT22;8311;50.158;8.642;2023-03-09T00:25:26;18.20;40.40
16404;DHT22;8311;50.158;8.642;2023-03-09T00:28:50;18.20;40.40
16404;DHT22;8311;50.158;8.642;2023-03-09T00:32:08;18.20;40.40
16404;DHT22;8311;50.158;8.642;2023-03-09T00:35:01;18.20;40.40
16404;DHT22;8311;50.158;8.642;2023-03-09T00:37:54;18.20;40.40
16404;DHT22;8311;50.158;8.642;2023-03-09T00:40:49;18.20;40.40
16404;DHT22;8311;50.158;8.642;2023-03-09T00:43:42;18.20;40.40
16404;DHT22;8311;50.158;8.642;2023-03-09T00:46:35;18.20;40.40
16404;DHT22;8311;50.158;8.642;2023-03-09T00:49:29;18.20;40.40
16404;DHT22;8311;50.158;8.642;2023-03-09T00:52:24;18.20;40.40
16404;DHT22;8311;50.158;8.642;2023-03-09T00:55:18;18.20;40.40
16404;DHT22;8311;50.158;8.642;2023-03-09T00:58:13;18.20;40.40
16404;DHT22;8311;50.158;8.642;2023-03-09T01:01:07;18.20;40.40
16404;DHT22;8311;50.158;8.642;2023-03-09T01:04:02;18.20;40.40
16404;DHT22;8311;50.158;8.642;2023-03-09T01:06:56;18.20;40.40
16404;DHT22;8311;50.158;8.642;2023-03-09T01:09:49;18.20;40.40
16404;DHT22;8311;50.158;8.642;2023-03-09T01:12:42;18.20;40.40
16404;DHT22;8311;50.158;8.642;2023-03-09T01:15:36;18.20;40.40
16404;DHT22;8311;50.158;8.642;2023-03-09T01:18:29;18.20;40.40
16404;DHT22;8311;50.158;8.642;2023-03-09T01:21:24;18.20;40.40
16404;DHT22;8311;50.158;8.642;2023-03-09T01:24:17;18.20;40.40
16404;DHT22;8311;50.158;8.642;2023-03-09T01:27:10;18.20;40.40
16404;DHT22;8311;50.158;8.642;2023-03-09T01:30:11;18.20;40.40
16404;DHT22;8311;50.158;8.642;2023-03-09T01:33:06;18.20;40.40
16404;DHT22;8311;50.158;8.642;2023-03-09T01:36:04;18.20;40.40
16404;DHT22;8311;50.158;8.642;2023-03-09T01:38:57;18.20;40.40
16404;DHT22;8311;50.158;8.642;2023-03-09T01:41:51;18.20;40.40
16404;DHT22;8311;50.158;8.642;2023-03-09T01:45:04;18.20;40.40
16404;DHT22;8311;50.158;8.642;2023-03-09T01:47:59;18.20;40.40
16404;DHT22;8311;50.158;8.642;2023-03-09T01:50:53;18.20;40.40
16404;DHT22;8311;50.158;8.642;2023-03-09T01:53:48;18.20;40.40
16404;DHT22;8311;50.158;8.642;2023-03-09T01:56:49;18.20;40.40
16404;DHT22;8311;50.158;8.642;2023-03-09T01:59:45;18.20;40.40
16404;DHT22;8311;50.158;8.642;2023-03-09T02:02:44;18.20;40.50
16404;DHT22;8311;50.158;8.642;2023-03-09T02:05:42;18.20;40.50
16404;DHT22;8311;50.158;8.642;2023-03-09T02:08:44;18.20;40.40
16404;DHT22;8311;50.158;8.642;2023-03-09T02:11:44;18.20;40.40
16404;DHT22;8311;50.158;8.642;2023-03-09T02:14:37;18.20;40.50
16404;DHT22;8311;50.158;8.642;2023-03-09T02:17:30;18.20;40.40
16404;DHT22;8311;50.158;8.642;2023-03-09T02:20:28;18.20;40.40
16404;DHT22;8311;50.158;8.642;2023-03-09T02:23:38;18.20;40.50
16404;DHT22;8311;50.158;8.642;2023-03-09T02:26:43;18.20;40.40
16404;DHT22;8311;50.158;8.642;2023-03-09T02:29:44;18.20;40.40
16404;DHT22;8311;50.158;8.642;2023-03-09T02:32:37;18.20;40.50
16404;DHT22;8311;50.158;8.642;2023-03-09T02:35:30;18.20;40.50
16404;DHT22;8311;50.158;8.642;2023-03-09T02:38:23;18.20;40.40
16404;DHT22;8311;50.158;8.642;2023-03-09T02:41:17;18.20;40.40
16404;DHT22;8311;50.158;8.642;2023-03-09T02:44:12;18.20;40.50
16404;DHT22;8311;50.158;8.642;2023-03-09T02:47:11;18.20;40.40
16404;DHT22;8311;50.158;8.642;2023-03-09T02:50:06;18.20;40.40
16404;DHT22;8311;50.158;8.642;2023-03-09T02:53:01;18.20;40.50
16404;DHT22;8311;50.158;8.642;2023-03-09T02:55:58;18.20;40.50
16404;DHT22;8311;50.158;8.642;2023-03-09T02:58:58;18.20;40.50
16404;DHT22;8311;50.158;8.642;2023-03-09T03:01:53;18.20;40.50
16404;DHT22;8311;50.158;8.642;2023-03-09T03:04:48;18.20;40.50
16404;DHT22;8311;50.158;8.642;2023-03-09T03:07:44;18.20;40.50
16404;DHT22;8311;50.158;8.642;2023-03-09T03:10:37;18.20;40.50
16404;DHT22;8311;50.158;8.642;2023-03-09T03:13:30;18.20;40.50
16404;DHT22;8311;50.158;8.642;2023-03-09T03:16:23;18.20;40.40
16404;DHT22;8311;50.158;8.642;2023-03-09T03:19:18;18.20;40.50
16404;DHT22;8311;50.158;8.642;2023-03-09T03:22:14;18.20;40.50
16404;DHT22;8311;50.158;8.642;2023-03-09T03:25:08;18.20;40.50
16404;DHT22;8311;50.158;8.642;2023-03-09T03:28:01;18.20;40.50
16404;DHT22;8311;50.158;8.642;2023-03-09T03:30:56;18.20;40.50
16404;DHT22;8311;50.158;8.642;2023-03-09T03:33:49;18.20;40.50
16404;DHT22;8311;50.158;8.642;2023-03-09T03:36:43;18.20;40.50
16404;DHT22;8311;50.158;8.642;2023-03-09T03:39:38;18.20;40.50
16404;DHT22;8311;50.158;8.642;2023-03-09T03:42:33;18.20;40.50
16404;DHT22;8311;50.158;8.642;2023-03-09T03:45:26;18.20;40.50
16404;DHT22;8311;50.158;8.642;2023-03-09T03:48:19;18.20;40.50
16404;DHT22;8311;50.158;8.642;2023-03-09T03:51:12;18.20;40.50
16404;DHT22;8311;50.158;8.642;2023-03-09T03:54:08;18.20;40.50
16404;DHT22;8311;50.158;8.642;2023-03-09T03:57:05;18.20;40.50
16404;DHT22;8311;50.158;8.642;2023-03-09T04:00:01;18.20;40.50
16404;DHT22;8311;50.158;8.642;2023-03-09T04:02:56;18.20;40.50
16404;DHT22;8311;50.158;8.642;2023-03-09T04:05:52;18.20;40.50
16404;DHT22;8311;50.158;8.642;2023-03-09T04:08:48;18.20;40.50
16404;DHT22;8311;50.158;8.642;2023-03-09T04:11:41;18.20;40.50
16404;DHT22;8311;50.158;8.642;2023-03-09T04:14:36;18.20;40.50
16404;DHT22;8311;50.158;8.642;2023-03-09T04:17:29;18.20;40.50
16404;DHT22;8311;50.158;8.642;2023-03-09T04:20:22;18.20;40.50
16404;DHT22;8311;50.158;8.642;2023-03-09T04:23:15;18.20;40.50
16404;DHT22;8311;50.158;8.642;2023-03-09T04:26:10;18.20;40.50
16404;DHT22;8311;50.158;8.642;2023-03-09T04:29:03;18.20;40.50
16404;DHT22;8311;50.158;8.642;2023-03-09T04:31:57;18.20;40.50
16404;DHT22;8311;50.158;8.642;2023-03-09T04:34:50;18.20;40.50
16404;DHT22;8311;50.158;8.642;2023-03-09T04:37:44;18.20;40.50
16404;DHT22;8311;50.158;8.642;2023-03-09T04:40:37;18.20;40.50
16404;DHT22;8311;50.158;8.642;2023-03-09T04:43:30;18.20;40.60
16404;DHT22;8311;50.158;8.642;2023-03-09T04:46:23;18.20;40.50
16404;DHT22;8311;50.158;8.642;2023-03-09T04:49:18;18.20;40.50
16404;DHT22;8311;50.158;8.642;2023-03-09T04:52:13;18.20;40.50
16404;DHT22;8311;50.158;8.642;2023-03-09T04:55:07;18.20;40.50
16404;DHT22;8311;50.158;8.642;2023-03-09T04:58:01;18.20;40.50
16404;DHT22;8311;50.158;8.642;2023-03-09T05:00:53;18.20;40.60
16404;DHT22;8311;50.158;8.642;2023-03-09T05:03:46;18.20;40.50
16404;DHT22;8311;50.158;8.642;2023-03-09T05:06:41;18.20;40.60
16404;DHT22;8311;50.158;8.642;2023-03-09T05:09:36;18.20;40.50
16404;DHT22;8311;50.158;8.642;2023-03-09T05:12:29;18.20;40.50
16404;DHT22;8311;50.158;8.642;2023-03-09T05:15:23;18.20;40.50
16404;DHT22;8311;50.158;8.642;2023-03-09T05:18:16;18.20;40.50
16404;DHT22;8311;50.158;8.642;2023-03-09T05:21:09;18.20;40.50
16404;DHT22;8311;50.158;8.642;2023-03-09T05:24:05;18.20;40.60
16404;DHT22;8311;50.158;8.642;2023-03-09T05:26:58;18.20;40.50
16404;DHT22;8311;50.158;8.642;2023-03-09T05:29:52;18.20;40.50
16404;DHT22;8311;50.158;8.642;2023-03-09T05:32:46;18.20;40.60
16404;DHT22;8311;50.158;8.642;2023-03-09T05:35:40;18.20;40.60
16404;DHT22;8311;50.158;8.642;2023-03-09T05:38:39;18.20;40.50
16404;DHT22;8311;50.158;8.642;2023-03-09T05:41:34;18.20;40.60
16404;DHT22;8311;50.158;8.642;2023-03-09T05:44:26;18.20;40.50
16404;DHT22;8311;50.158;8.642;2023-03-09T05:47:19;18.20;40.60
16404;DHT22;8311;50.158;8.642;2023-03-09T05:50:13;18.20;40.60
16404;DHT22;8311;50.158;8.642;2023-03-09T05:53:05;18.20;40.60
16404;DHT22;8311;50.158;8.642;2023-03-09T05:55:59;18.20;40.50
16404;DHT22;8311;50.158;8.642;2023-03-09T05:59:00;18.20;40.60
16404;DHT22;8311;50.158;8.642;2023-03-09T06:01:54;18.20;40.50
16404;DHT22;8311;50.158;8.642;2023-03-09T06:04:49;18.20;40.60
16404;DHT22;8311;50.158;8.642;2023-03-09T06:07:42;18.20;40.60
16404;DHT22;8311;50.158;8.642;2023-03-09T06:10:36;18.20;40.60
16404;DHT22;8311;50.158;8.642;2023-03-09T06:13:28;18.20;40.50
16404;DHT22;8311;50.158;8.642;2023-03-09T06:16:23;18.20;40.60
16404;DHT22;8311;50.158;8.642;2023-03-09T06:19:19;18.20;40.60
16404;DHT22;8311;50.158;8.642;2023-03-09T06:22:11;18.20;40.60
16404;DHT22;8311;50.158;8.642;2023-03-09T06:25:05;18.20;40.60
16404;DHT22;8311;50.158;8.642;2023-03-09T06:27:58;18.20;40.60
16404;DHT22;8311;50.158;8.642;2023-03-09T06:30:52;18.20;40.60
16404;DHT22;8311;50.158;8.642;2023-03-09T06:33:46;18.20;40.60
16404;DHT22;8311;50.158;8.642;2023-03-09T06:36:39;18.20;40.60
16404;DHT22;8311;50.158;8.642;2023-03-09T06:39:32;18.20;40.60
16404;DHT22;8311;50.158;8.642;2023-03-09T06:42:35;18.20;40.60
16404;DHT22;8311;50.158;8.642;2023-03-09T06:45:28;18.20;40.60
16404;DHT22;8311;50.158;8.642;2023-03-09T06:48:21;18.20;40.60
16404;DHT22;8311;50.158;8.642;2023-03-09T06:51:16;18.20;40.60
16404;DHT22;8311;50.158;8.642;2023-03-09T06:54:10;18.20;40.60
16404;DHT22;8311;50.158;8.642;2023-03-09T06:57:04;18.20;40.60
16404;DHT22;8311;50.158;8.642;2023-03-09T06:59:56;18.20;40.60
16404;DHT22;8311;50.158;8.642;2023-03-09T07:02:50;18.20;40.60
16404;DHT22;8311;50.158;8.642;2023-03-09T07:05:42;18.20;40.60
16404;DHT22;8311;50.158;8.642;2023-03-09T07:08:37;18.20;40.60
16404;DHT22;8311;50.158;8.642;2023-03-09T07:11:30;18.20;40.60
16404;DHT22;8311;50.158;8.642;2023-03-09T07:14:23;18.20;40.60
16404;DHT22;8311;50.158;8.642;2023-03-09T07:17:16;18.30;40.70
16404;DHT22;8311;50.158;8.642;2023-03-09T07:20:10;18.20;40.60
16404;DHT22;8311;50.158;8.642;2023-03-09T07:23:05;18.20;40.60
16404;DHT22;8311;50.158;8.642;2023-03-09T07:26:00;18.20;40.60
16404;DHT22;8311;50.158;8.642;2023-03-09T07:28:54;18.20;40.60
16404;DHT22;8311;50.158;8.642;2023-03-09T07:31:46;18.20;40.60
16404;DHT22;8311;50.158;8.642;2023-03-09T07:34:39;18.20;40.60
16404;DHT22;8311;50.158;8.642;2023-03-09T07:37:32;18.20;40.60
16404;DHT22;8311;50.158;8.642;2023-03-09T07:40:26;18.20;40.60
16404;DHT22;8311;50.158;8.642;2023-03-09T07:43:20;18.20;40.60
16404;DHT22;8311;50.158;8.642;2023-03-09T07:46:15;18.20;40.60
16404;DHT22;8311;50.158;8.642;2023-03-09T07:49:09;18.20;40.60
16404;DHT22;8311;50.158;8.642;2023-03-09T07:52:03;18.20;40.60
16404;DHT22;8311;50.158;8.642;2023-03-09T07:54:56;18.20;40.60
16404;DHT22;8311;50.158;8.642;2023-03-09T07:57:49;18.20;40.70
16404;DHT22;8311;50.158;8.642;2023-03-09T08:00:44;18.20;40.60
16404;DHT22;8311;50.158;8.642;2023-03-09T08:03:36;18.20;40.60
16404;DHT22;8311;50.158;8.642;2023-03-09T08:06:29;18.20;40.60
16404;DHT22;8311;50.158;8.642;2023-03-09T08:09:22;18.20;40.70
16404;DHT22;8311;50.158;8.642;2023-03-09T08:12:15;18.20;40.70
16404;DHT22;8311;50.158;8.642;2023-03-09T08:15:09;18.20;40.60
16404;DHT22;8311;50.158;8.642;2023-03-09T08:18:04;18.20;40.70
16404;DHT22;8311;50.158;8.642;2023-03-09T08:21:03;18.30;40.80
16404;DHT22;8311;50.158;8.642;2023-03-09T08:23:57;18.20;40.70
16404;DHT22;8311;50.158;8.642;2023-03-09T08:26:51;18.20;40.70
16404;DHT22;8311;50.158;8.642;2023-03-09T08:29:44;18.20;40.70
16404;DHT22;8311;50.158;8.642;2023-03-09T08:32:37;18.20;40.70
16404;DHT22;8311;50.158;8.642;2023-03-09T08:35:32;18.20;40.70
16404;DHT22;8311;50.158;8.642;2023-03-09T08:38:25;18.20;40.70
16404;DHT22;8311;50.158;8.642;2023-03-09T08:41:19;18.20;40.70
16404;DHT22;8311;50.158;8.642;2023-03-09T08:44:13;18.20;40.70
16404;DHT22;8311;50.158;8.642;2023-03-09T08:47:05;18.20;40.70
16404;DHT22;8311;50.158;8.642;2023-03-09T08:49:59;18.20;40.70
16404;DHT22;8311;50.158;8.642;2023-03-09T08:52:53;18.30;40.80
16404;DHT22;8311;50.158;8.642;2023-03-09T08:55:47;18.20;40.70
16404;DHT22;8311;50.158;8.642;2023-03-09T08:58:40;18.30;40.70
16404;DHT22;8311;50.158;8.642;2023-03-09T09:01:34;18.20;40.70
16404;DHT22;8311;50.158;8.642;2023-03-09T09:04:27;18.30;40.70
16404;DHT22;8311;50.158;8.642;2023-03-09T09:07:20;18.20;40.70
16404;DHT22;8311;50.158;8.642;2023-03-09T09:10:14;18.30;40.80
16404;DHT22;8311;50.158;8.642;2023-03-09T09:13:25;18.20;40.70
16404;DHT22;8311;50.158;8.642;2023-03-09T09:16:19;18.30;40.70
16404;DHT22;8311;50.158;8.642;2023-03-09T09:19:13;18.30;40.80
16404;DHT22;8311;50.158;8.642;2023-03-09T09:22:06;18.30;40.80
16404;DHT22;8311;50.158;8.642;2023-03-09T09:25:01;18.20;40.70
16404;DHT22;8311;50.158;8.642;2023-03-09T09:27:56;18.20;40.70
16404;DHT22;8311;50.158;8.642;2023-03-09T09:30:53;18.30;40.80
16404;DHT22;8311;50.158;8.642;2023-03-09T09:33:47;18.20;40.70
16404;DHT22;8311;50.158;8.642;2023-03-09T09:36:40;18.20;40.90
16404;DHT22;8311;50.158;8.642;2023-03-09T09:39:34;18.30;40.80
16404;DHT22;8311;50.158;8.642;2023-03-09T09:42:29;18.30;40.80
16404;DHT22;8311;50.158;8.642;2023-03-09T09:45:29;18.30;40.80
16404;DHT22;8311;50.158;8.642;2023-03-09T09:48:23;18.30;40.80
16404;DHT22;8311;50.158;8.642;2023-03-09T09:51:32;18.30;40.80
16404;DHT22;8311;50.158;8.642;2023-03-09T09:54:36;18.30;40.80
16404;DHT22;8311;50.158;8.642;2023-03-09T09:57:36;18.30;40.80
16404;DHT22;8311;50.158;8.642;2023-03-09T10:00:35;18.30;40.80
16404;DHT22;8311;50.158;8.642;2023-03-09T10:03:33;18.30;40.80
16404;DHT22;8311;50.158;8.642;2023-03-09T10:06:28;18.20;40.80
16404;DHT22;8311;50.158;8.642;2023-03-09T10:09:23;18.30;40.80
16404;DHT22;8311;50.158;8.642;2023-03-09T10:12:17;18.30;40.80
16404;DHT22;8311;50.158;8.642;2023-03-09T10:15:13;18.30;40.80
16404;DHT22;8311;50.158;8.642;2023-03-09T10:18:11;18.30;40.80
16404;DHT22;8311;50.158;8.642;2023-03-09T10:21:12;18.30;40.90
16404;DHT22;8311;50.158;8.642;2023-03-09T10:24:18;18.30;40.90
16404;DHT22;8311;50.158;8.642;2023-03-09T10:27:18;18.30;40.80
16404;DHT22;8311;50.158;8.642;2023-03-09T10:30:18;18.30;40.90
16404;DHT22;8311;50.158;8.642;2023-03-09T10:33:17;18.30;40.90
16404;DHT22;8311;50.158;8.642;2023-03-09T10:36:15;18.30;40.90
16404;DHT22;8311;50.158;8.642;2023-03-09T10:39:12;18.30;40.90
16404;DHT22;8311;50.158;8.642;2023-03-09T10:42:20;18.30;40.90
16404;DHT22;8311;50.158;8.642;2023-03-09T10:45:22;18.30;40.90
16404;DHT22;8311;50.158;8.642;2023-03-09T10:48:24;18.30;40.90
16404;DHT22;8311;50.158;8.642;2023-03-09T10:51:23;18.30;41.50
16404;DHT22;8311;50.158;8.642;2023-03-09T10:54:22;18.30;40.90
16404;DHT22;8311;50.158;8.642;2023-03-09T10:57:21;18.30;40.90
16404;DHT22;8311;50.158;8.642;2023-03-09T11:00:14;18.30;40.90
16404;DHT22;8311;50.158;8.642;2023-03-09T11:03:20;18.30;40.90
16404;DHT22;8311;50.158;8.642;2023-03-09T11:06:31;18.30;40.90
16404;DHT22;8311;50.158;8.642;2023-03-09T11:09:29;18.30;40.90
16404;DHT22;8311;50.158;8.642;2023-03-09T11:12:25;18.30;41.60
16404;DHT22;8311;50.158;8.642;2023-03-09T11:15:26;18.30;40.90
16404;DHT22;8311;50.158;8.642;2023-03-09T11:18:28;18.30;40.90
16404;DHT22;8311;50.158;8.642;2023-03-09T11:21:22;18.30;40.90
16404;DHT22;8311;50.158;8.642;2023-03-09T11:24:17;18.30;40.90
16404;DHT22;8311;50.158;8.642;2023-03-09T11:27:14;18.30;40.90
16404;DHT22;8311;50.158;8.642;2023-03-09T11:30:13;18.30;40.90
16404;DHT22;8311;50.158;8.642;2023-03-09T11:33:16;18.30;40.90
16404;DHT22;8311;50.158;8.642;2023-03-09T11:36:13;18.30;41.00
16404;DHT22;8311;50.158;8.642;2023-03-09T11:39:15;18.30;41.00
16404;DHT22;8311;50.158;8.642;2023-03-09T11:42:13;18.30;41.00
16404;DHT22;8311;50.158;8.642;2023-03-09T11:45:14;18.30;40.90
16404;DHT22;8311;50.158;8.642;2023-03-09T11:48:16;18.30;41.00
16404;DHT22;8311;50.158;8.642;2023-03-09T11:51:14;18.30;41.00
16404;DHT22;8311;50.158;8.642;2023-03-09T11:54:18;18.30;41.00
16404;DHT22;8311;50.158;8.642;2023-03-09T11:57:16;18.30;40.90
16404;DHT22;8311;50.158;8.642;2023-03-09T12:00:13;18.30;40.90
16404;DHT22;8311;50.158;8.642;2023-03-09T12:03:10;18.30;40.90
16404;DHT22;8311;50.158;8.642;2023-03-09T12:06:23;18.40;41.00
16404;DHT22;8311;50.158;8.642;2023-03-09T12:09:27;18.40;41.00
16404;DHT22;8311;50.158;8.642;2023-03-09T12:12:30;18.30;41.00
16404;DHT22;8311;50.158;8.642;2023-03-09T12:15:28;18.30;40.90
16404;DHT22;8311;50.158;8.642;2023-03-09T12:18:26;18.30;41.00
16404;DHT22;8311;50.158;8.642;2023-03-09T12:21:28;18.30;41.00
16404;DHT22;8311;50.158;8.642;2023-03-09T12:24:27;18.30;41.00
16404;DHT22;8311;50.158;8.642;2023-03-09T12:27:22;18.40;41.00
16404;DHT22;8311;50.158;8.642;2023-03-09T12:30:25;18.30;41.00
16404;DHT22;8311;50.158;8.642;2023-03-09T12:36:48;18.40;41.00
16404;DHT22;8311;50.158;8.642;2023-03-09T12:39:44;18.30;41.00
16404;DHT22;8311;50.158;8.642;2023-03-09T12:42:38;18.30;41.00
16404;DHT22;8311;50.158;8.642;2023-03-09T12:45:33;18.30;41.00
16404;DHT22;8311;50.158;8.642;2023-03-09T12:48:28;18.40;41.00
16404;DHT22;8311;50.158;8.642;2023-03-09T12:51:30;18.30;41.00
16404;DHT22;8311;50.158;8.642;2023-03-09T12:54:30;18.30;41.00
16404;DHT22;8311;50.158;8.642;2023-03-09T12:57:23;18.10;46.90
16404;DHT22;8311;50.158;8.642;2023-03-09T13:00:26;18.10;44.30
16404;DHT22;8311;50.158;8.642;2023-03-09T13:03:23;18.20;43.50
16404;DHT22;8311;50.158;8.642;2023-03-09T13:06:23;18.20;43.30
16404;DHT22;8311;50.158;8.642;2023-03-09T13:09:21;18.20;43.30
16404;DHT22;8311;50.158;8.642;2023-03-09T13:12:17;18.30;43.30
16404;DHT22;8311;50.158;8.642;2023-03-09T13:15:22;18.30;43.20
16404;DHT22;8311;50.158;8.642;2023-03-09T13:18:24;18.30;43.10
16404;DHT22;8311;50.158;8.642;2023-03-09T13:21:41;18.30;43.00
16404;DHT22;8311;50.158;8.642;2023-03-09T13:24:37;18.30;42.80
16404;DHT22;8311;50.158;8.642;2023-03-09T13:27:33;18.30;42.80
16404;DHT22;8311;50.158;8.642;2023-03-09T13:30:27;18.30;42.70
16404;DHT22;8311;50.158;8.642;2023-03-09T13:33:25;18.30;42.60
16404;DHT22;8311;50.158;8.642;2023-03-09T13:36:23;18.30;42.60
16404;DHT22;8311;50.158;8.642;2023-03-09T13:39:20;18.40;42.60
16404;DHT22;8311;50.158;8.642;2023-03-09T13:42:16;18.40;42.50
16404;DHT22;8311;50.158;8.642;2023-03-09T13:45:17;18.40;42.50
16404;DHT22;8311;50.158;8.642;2023-03-09T13:48:13;18.40;42.50
16404;DHT22;8311;50.158;8.642;2023-03-09T13:51:32;18.40;42.40
16404;DHT22;8311;50.158;8.642;2023-03-09T13:54:29;18.40;42.40
16404;DHT22;8311;50.158;8.642;2023-03-09T13:57:24;18.40;42.40
16404;DHT22;8311;50.158;8.642;2023-03-09T14:00:21;18.40;42.30
16404;DHT22;8311;50.158;8.642;2023-03-09T14:03:14;18.40;42.30
16404;DHT22;8311;50.158;8.642;2023-03-09T14:06:09;18.40;42.30
16404;DHT22;8311;50.158;8.642;2023-03-09T14:09:30;18.40;42.30
16404;DHT22;8311;50.158;8.642;2023-03-09T14:12:28;18.40;42.80
16404;DHT22;8311;50.158;8.642;2023-03-09T14:15:22;18.40;42.20
16404;DHT22;8311;50.158;8.642;2023-03-09T14:18:24;18.40;42.20
16404;DHT22;8311;50.158;8.642;2023-03-09T14:21:20;18.50;42.20
16404;DHT22;8311;50.158;8.642;2023-03-09T14:24:22;18.40;42.10
16404;DHT22;8311;50.158;8.642;2023-03-09T14:27:23;18.40;42.10
16404;DHT22;8311;50.158;8.642;2023-03-09T14:30:33;18.40;42.10
16404;DHT22;8311;50.158;8.642;2023-03-09T14:33:33;18.40;42.10
16404;DHT22;8311;50.158;8.642;2023-03-09T14:36:27;18.40;42.00
16404;DHT22;8311;50.158;8.642;2023-03-09T14:39:24;18.40;42.00
16404;DHT22;8311;50.158;8.642;2023-03-09T14:42:25;18.40;42.10
16404;DHT22;8311;50.158;8.642;2023-03-09T14:45:21;18.40;42.10
16404;DHT22;8311;50.158;8.642;2023-03-09T14:48:15;18.40;42.10
16404;DHT22;8311;50.158;8.642;2023-03-09T14:51:12;18.50;42.10
16404;DHT22;8311;50.158;8.642;2023-03-09T14:54:12;18.40;42.00
16404;DHT22;8311;50.158;8.642;2023-03-09T14:57:09;18.40;42.00
16404;DHT22;8311;50.158;8.642;2023-03-09T15:00:05;18.50;42.00
16404;DHT22;8311;50.158;8.642;2023-03-09T15:02:58;18.40;42.00
16404;DHT22;8311;50.158;8.642;2023-03-09T15:05:52;18.50;42.10
16404;DHT22;8311;50.158;8.642;2023-03-09T15:08:45;18.50;42.70
16404;DHT22;8311;50.158;8.642;2023-03-09T15:11:38;18.50;42.00
16404;DHT22;8311;50.158;8.642;2023-03-09T15:14:33;18.50;42.00
16404;DHT22;8311;50.158;8.642;2023-03-09T15:17:28;18.50;42.00
16404;DHT22;8311;50.158;8.642;2023-03-09T15:20:22;18.40;42.00
16404;DHT22;8311;50.158;8.642;2023-03-09T15:23:32;18.50;42.00
16404;DHT22;8311;50.158;8.642;2023-03-09T15:26:25;18.50;42.00
16404;DHT22;8311;50.158;8.642;2023-03-09T15:29:20;18.50;42.00
16404;DHT22;8311;50.158;8.642;2023-03-09T15:32:13;18.50;42.00
16404;DHT22;8311;50.158;8.642;2023-03-09T15:35:11;18.50;42.00
16404;DHT22;8311;50.158;8.642;2023-03-09T15:38:05;18.50;42.00
16404;DHT22;8311;50.158;8.642;2023-03-09T15:40:58;18.50;42.10
16404;DHT22;8311;50.158;8.642;2023-03-09T15:43:51;18.50;42.00
16404;DHT22;8311;50.158;8.642;2023-03-09T15:46:45;18.50;42.00
16404;DHT22;8311;50.158;8.642;2023-03-09T15:49:40;18.50;42.10
16404;DHT22;8311;50.158;8.642;2023-03-09T15:52:37;18.50;42.70
16404;DHT22;8311;50.158;8.642;2023-03-09T15:55:31;18.50;42.10
16404;DHT22;8311;50.158;8.642;2023-03-09T15:58:24;18.60;44.90
16404;DHT22;8311;50.158;8.642;2023-03-09T16:01:19;18.60;43.40
16404;DHT22;8311;50.158;8.642;2023-03-09T16:04:14;18.60;43.00
16404;DHT22;8311;50.158;8.642;2023-03-09T16:07:07;18.50;42.70
16404;DHT22;8311;50.158;8.642;2023-03-09T16:10:01;18.50;42.60
16404;DHT22;8311;50.158;8.642;2023-03-09T16:12:55;18.50;43.10
16404;DHT22;8311;50.158;8.642;2023-03-09T16:15:48;18.50;41.90
16404;DHT22;8311;50.158;8.642;2023-03-09T16:18:42;18.50;42.40
16404;DHT22;8311;50.158;8.642;2023-03-09T16:21:35;18.50;42.30
16404;DHT22;8311;50.158;8.642;2023-03-09T16:24:28;18.50;42.40
16404;DHT22;8311;50.158;8.642;2023-03-09T16:27:22;18.50;42.30
16404;DHT22;8311;50.158;8.642;2023-03-09T16:30:17;18.50;42.30
16404;DHT22;8311;50.158;8.642;2023-03-09T16:33:11;18.50;42.30
16404;DHT22;8311;50.158;8.642;2023-03-09T16:36:04;18.50;42.30
16404;DHT22;8311;50.158;8.642;2023-03-09T16:38:58;18.50;42.30
16404;DHT22;8311;50.158;8.642;2023-03-09T16:41:53;18.50;42.20
16404;DHT22;8311;50.158;8.642;2023-03-09T16:44:48;18.50;42.20
16404;DHT22;8311;50.158;8.642;2023-03-09T16:47:42;18.50;42.20
16404;DHT22;8311;50.158;8.642;2023-03-09T16:50:35;18.50;42.20
16404;DHT22;8311;50.158;8.642;2023-03-09T16:53:30;18.50;42.20
16404;DHT22;8311;50.158;8.642;2023-03-09T16:56:23;18.50;42.20
16404;DHT22;8311;50.158;8.642;2023-03-09T16:59:16;18.50;42.20
16404;DHT22;8311;50.158;8.642;2023-03-09T17:02:10;18.50;42.20
16404;DHT22;8311;50.158;8.642;2023-03-09T17:05:06;18.50;42.20
16404;DHT22;8311;50.158;8.642;2023-03-09T17:08:00;18.50;42.20
16404;DHT22;8311;50.158;8.642;2023-03-09T17:10:54;18.50;42.20
16404;DHT22;8311;50.158;8.642;2023-03-09T17:13:50;18.50;42.20
16404;DHT22;8311;50.158;8.642;2023-03-09T17:16:44;18.50;42.20
16404;DHT22;8311;50.158;8.642;2023-03-09T17:19:38;18.50;42.20
16404;DHT22;8311;50.158;8.642;2023-03-09T17:22:32;18.50;42.20
16404;DHT22;8311;50.158;8.642;2023-03-09T17:25:26;18.50;42.20
16404;DHT22;8311;50.158;8.642;2023-03-09T17:28:20;18.50;42.20
16404;DHT22;8311;50.158;8.642;2023-03-09T17:31:14;18.50;42.20
16404;DHT22;8311;50.158;8.642;2023-03-09T17:34:08;18.50;42.20
16404;DHT22;8311;50.158;8.642;2023-03-09T17:37:03;18.50;42.20
16404;DHT22;8311;50.158;8.642;2023-03-09T17:39:56;18.50;42.20
16404;DHT22;8311;50.158;8.642;2023-03-09T17:42:50;18.50;42.20
16404;DHT22;8311;50.158;8.642;2023-03-09T17:45:45;18.50;42.20
16404;DHT22;8311;50.158;8.642;2023-03-09T17:48:38;18.50;42.20
16404;DHT22;8311;50.158;8.642;2023-03-09T17:51:32;18.50;42.20
16404;DHT22;8311;50.158;8.642;2023-03-09T17:54:26;18.50;42.10
16404;DHT22;8311;50.158;8.642;2023-03-09T17:57:20;18.50;42.10
16404;DHT22;8311;50.158;8.642;2023-03-09T18:00:14;18.50;42.10
16404;DHT22;8311;50.158;8.642;2023-03-09T18:03:07;18.50;42.20
16404;DHT22;8311;50.158;8.642;2023-03-09T18:06:00;18.50;42.10
16404;DHT22;8311;50.158;8.642;2023-03-09T18:08:53;18.50;42.20
16404;DHT22;8311;50.158;8.642;2023-03-09T18:11:48;18.50;42.10
16404;DHT22;8311;50.158;8.642;2023-03-09T18:14:42;18.50;42.10
16404;DHT22;8311;50.158;8.642;2023-03-09T18:17:35;18.50;42.10
16404;DHT22;8311;50.158;8.642;2023-03-09T18:20:28;18.50;42.10
16404;DHT22;8311;50.158;8.642;2023-03-09T18:23:21;18.50;42.10
16404;DHT22;8311;50.158;8.642;2023-03-09T18:26:16;18.50;42.10
16404;DHT22;8311;50.158;8.642;2023-03-09T18:29:12;18.50;42.10
16404;DHT22;8311;50.158;8.642;2023-03-09T18:32:05;18.50;42.10
16404;DHT22;8311;50.158;8.642;2023-03-09T18:34:58;18.50;42.10
16404;DHT22;8311;50.158;8.642;2023-03-09T18:37:52;18.50;42.10
16404;DHT22;8311;50.158;8.642;2023-03-09T18:40:45;18.50;42.10
16404;DHT22;8311;50.158;8.642;2023-03-09T18:43:38;18.50;42.10
16404;DHT22;8311;50.158;8.642;2023-03-09T18:46:34;18.50;42.10
16404;DHT22;8311;50.158;8.642;2023-03-09T18:49:28;18.50;42.10
16404;DHT22;8311;50.158;8.642;2023-03-09T18:52:23;18.50;42.10